Fire Weather Observation
Issued by NWS Grand Junction, CO

Home | Current Version | Previous Version | Text Only | Print | Product List | Glossary Off
Versions: 1 2 3 4 5 6 7 8 9 10 11 12 13 14 15 16 17 18 19 20 21 22 23 24 25 26 27 28 29 30 31 32 33 34

000
SHUS65 KGJT 252013
FWOGJT

DAILY FIRE WEATHER OBSERVATION
NATIONAL WEATHER SERVICE GRAND JUNCTION CO
212 PM MDT THU AUG 25 2016

STATE OF THE WEATHER (W)               1
DRY BULB TEMPERATURE                   78   DEGREES FAHRENHEIT
RELATIVE HUMIDITY (RH)                 24   PERCENT
LIGHTNING ACTIVITY LEVEL
  (LAL - MIDNIGHT TO 2 PM)             2
WIND DIRECTION                         180  DEGREES (C IF CALM)
WIND SPEED                             3    MPH
MAX TEMP (2 PM - 2 PM)                 86   DEGREES FAHRENHEIT
MIN TEMP (2 PM - 2 PM)                 58   DEGREES FAHRENHEIT
MAX RH (2 PM - 2 PM)                   72   PERCENT
MIN RH (2 PM - 2 PM)                   18   PERCENT
PCPN DURATION                          3.4  HOURS
PCPN AMT (2 PM - 2 PM)                 0.04 INCHES
LAL (2 PM - 2 PM)                      2

$$

METAR KGJT 251953Z 18003KT 10SM CLR 26/03 A3010 RMK AO2 SLP130
      T02560033



USA.gov is the U.S. government's official web portal to all federal, state and local government web resources and services.